sensor_id;sensor_type;location;lat;lon;timestamp;P1;P2;P0
31163;PMS5003;17796;49.296;-117.656;2024-02-23T00:14:29;10;10;
31163;PMS5003;17796;49.296;-117.656;2024-02-23T00:29:33;16;15;
31163;PMS5003;17796;49.296;-117.656;2024-02-23T00:44:37;11;9;
31163;PMS5003;17796;49.296;-117.656;2024-02-23T00:59:41;12;11;
31163;PMS5003;17796;49.296;-117.656;2024-02-23T01:14:45;14;10;
31163;PMS5003;17796;49.296;-117.656;2024-02-23T01:29:49;15;15;
31163;PMS5003;17796;49.296;-117.656;2024-02-23T01:44:53;15;10;
31163;PMS5003;17796;49.296;-117.656;2024-02-23T01:59:57;22;17;
31163;PMS5003;17796;49.296;-117.656;2024-02-23T02:15:01;18;12;
31163;PMS5003;17796;49.296;-117.656;2024-02-23T02:30:10;13;13;
31163;PMS5003;17796;49.296;-117.656;2024-02-23T02:45:14;17;16;
31163;PMS5003;17796;49.296;-117.656;2024-02-23T03:00:18;17;15;
31163;PMS5003;17796;49.296;-117.656;2024-02-23T03:15:22;16;16;
31163;PMS5003;17796;49.296;-117.656;2024-02-23T03:30:26;24;18;
31163;PMS5003;17796;49.296;-117.656;2024-02-23T03:45:30;16;15;
31163;PMS5003;17796;49.296;-117.656;2024-02-23T04:00:34;16;12;
31163;PMS5003;17796;49.296;-117.656;2024-02-23T04:15:38;21;16;
31163;PMS5003;17796;49.296;-117.656;2024-02-23T04:30:42;17;12;
31163;PMS5003;17796;49.296;-117.656;2024-02-23T04:45:46;18;15;
31163;PMS5003;17796;49.296;-117.656;2024-02-23T05:00:51;12;12;
31163;PMS5003;17796;49.296;-117.656;2024-02-23T05:15:56;15;13;
31163;PMS5003;17796;49.296;-117.656;2024-02-23T05:31:02;15;12;
31163;PMS5003;17796;49.296;-117.656;2024-02-23T05:46:06;9;9;
31163;PMS5003;17796;49.296;-117.656;2024-02-23T06:01:09;13;10;
31163;PMS5003;17796;49.296;-117.656;2024-02-23T06:16:13;9;8;
31163;PMS5003;17796;49.296;-117.656;2024-02-23T06:31:17;0;0;
31163;PMS5003;17796;49.296;-117.656;2024-02-23T06:46:31;2;2;
31163;PMS5003;17796;49.296;-117.656;2024-02-23T07:01:34;4;1;
31163;PMS5003;17796;49.296;-117.656;2024-02-23T07:16:39;4;3;
31163;PMS5003;17796;49.296;-117.656;2024-02-23T07:31:43;3;3;
31163;PMS5003;17796;49.296;-117.656;2024-02-23T07:46:46;2;2;
31163;PMS5003;17796;49.296;-117.656;2024-02-23T08:01:50;2;2;
31163;PMS5003;17796;49.296;-117.656;2024-02-23T08:16:53;3;2;
31163;PMS5003;17796;49.296;-117.656;2024-02-23T08:31:58;2;2;
31163;PMS5003;17796;49.296;-117.656;2024-02-23T08:47:07;0;0;
31163;PMS5003;17796;49.296;-117.656;2024-02-23T09:02:10;2;2;
31163;PMS5003;17796;49.296;-117.656;2024-02-23T09:17:19;1;1;
31163;PMS5003;17796;49.296;-117.656;2024-02-23T09:32:23;2;1;
31163;PMS5003;17796;49.296;-117.656;2024-02-23T09:47:28;1;1;
31163;PMS5003;17796;49.296;-117.656;2024-02-23T10:02:31;1;1;
31163;PMS5003;17796;49.296;-117.656;2024-02-23T10:17:35;1;1;
31163;PMS5003;17796;49.296;-117.656;2024-02-23T10:32:40;3;2;
31163;PMS5003;17796;49.296;-117.656;2024-02-23T10:47:44;1;1;
31163;PMS5003;17796;49.296;-117.656;2024-02-23T11:02:51;4;2;
31163;PMS5003;17796;49.296;-117.656;2024-02-23T11:17:56;3;1;
31163;PMS5003;17796;49.296;-117.656;2024-02-23T11:33:00;2;2;
31163;PMS5003;17796;49.296;-117.656;2024-02-23T11:48:06;2;2;
31163;PMS5003;17796;49.296;-117.656;2024-02-23T12:03:10;2;1;
31163;PMS5003;17796;49.296;-117.656;2024-02-23T12:18:14;1;1;
31163;PMS5003;17796;49.296;-117.656;2024-02-23T12:33:18;3;3;
31163;PMS5003;17796;49.296;-117.656;2024-02-23T12:48:23;2;2;
31163;PMS5003;17796;49.296;-117.656;2024-02-23T13:03:27;2;2;
31163;PMS5003;17796;49.296;-117.656;2024-02-23T13:18:31;2;2;
31163;PMS5003;17796;49.296;-117.656;2024-02-23T13:33:35;3;3;
31163;PMS5003;17796;49.296;-117.656;2024-02-23T13:48:38;4;4;
31163;PMS5003;17796;49.296;-117.656;2024-02-23T14:03:42;3;3;
31163;PMS5003;17796;49.296;-117.656;2024-02-23T14:18:46;6;5;
31163;PMS5003;17796;49.296;-117.656;2024-02-23T14:33:49;2;2;
31163;PMS5003;17796;49.296;-117.656;2024-02-23T14:48:53;3;3;
31163;PMS5003;17796;49.296;-117.656;2024-02-23T15:03:57;6;4;
31163;PMS5003;17796;49.296;-117.656;2024-02-23T15:19:00;4;4;
31163;PMS5003;17796;49.296;-117.656;2024-02-23T15:34:04;6;5;
31163;PMS5003;17796;49.296;-117.656;2024-02-23T15:49:08;3;3;
31163;PMS5003;17796;49.296;-117.656;2024-02-23T16:04:12;7;6;
31163;PMS5003;17796;49.296;-117.656;2024-02-23T16:19:16;4;4;
31163;PMS5003;17796;49.296;-117.656;2024-02-23T16:34:20;3;3;
31163;PMS5003;17796;49.296;-117.656;2024-02-23T16:49:23;6;5;
31163;PMS5003;17796;49.296;-117.656;2024-02-23T17:04:28;4;4;
31163;PMS5003;17796;49.296;-117.656;2024-02-23T17:19:31;7;5;
31163;PMS5003;17796;49.296;-117.656;2024-02-23T17:34:36;6;5;
31163;PMS5003;17796;49.296;-117.656;2024-02-23T17:49:39;6;6;
31163;PMS5003;17796;49.296;-117.656;2024-02-23T18:04:43;13;12;
31163;PMS5003;17796;49.296;-117.656;2024-02-23T18:19:47;9;6;
31163;PMS5003;17796;49.296;-117.656;2024-02-23T18:34:50;11;10;
31163;PMS5003;17796;49.296;-117.656;2024-02-23T18:49:54;9;9;
31163;PMS5003;17796;49.296;-117.656;2024-02-23T19:04:58;12;11;
31163;PMS5003;17796;49.296;-117.656;2024-02-23T19:20:01;13;12;
31163;PMS5003;17796;49.296;-117.656;2024-02-23T19:35:05;18;9;
31163;PMS5003;17796;49.296;-117.656;2024-02-23T19:50:10;6;5;
31163;PMS5003;17796;49.296;-117.656;2024-02-23T20:05:13;4;4;
31163;PMS5003;17796;49.296;-117.656;2024-02-23T20:20:17;5;5;
31163;PMS5003;17796;49.296;-117.656;2024-02-23T20:35:21;8;5;
31163;PMS5003;17796;49.296;-117.656;2024-02-23T20:50:25;6;5;
31163;PMS5003;17796;49.296;-117.656;2024-02-23T21:05:29;8;7;
31163;PMS5003;17796;49.296;-117.656;2024-02-23T21:20:33;5;5;
31163;PMS5003;17796;49.296;-117.656;2024-02-23T21:35:37;8;6;
31163;PMS5003;17796;49.296;-117.656;2024-02-23T21:50:41;8;6;
31163;PMS5003;17796;49.296;-117.656;2024-02-23T22:05:44;11;7;
31163;PMS5003;17796;49.296;-117.656;2024-02-23T22:20:48;8;7;
31163;PMS5003;17796;49.296;-117.656;2024-02-23T22:35:51;9;5;
31163;PMS5003;17796;49.296;-117.656;2024-02-23T22:50:56;9;5;
31163;PMS5003;17796;49.296;-117.656;2024-02-23T23:05:59;9;6;
31163;PMS5003;17796;49.296;-117.656;2024-02-23T23:21:04;7;5;
31163;PMS5003;17796;49.296;-117.656;2024-02-23T23:36:09;5;4;
31163;PMS5003;17796;49.296;-117.656;2024-02-23T23:51:13;8;7;
